ADDS METAR Data INFO
IDs: Format: Raw Decoded Include TAF

Data at: 0032 UTC 17 Dec 2017

PATA 162352Z 00000KT 10SM BKN044 BKN070 M09/M09 A2920 RMK AO2 SLP895 T10891094 11061 21106 53010 PNO
PATA 162252Z 10004KT 10SM OVC044 M07/M08 A2919 RMK AO2 SLP891 T10671078 PNO
PATA 162152Z 02004KT 10SM FEW043 BKN120 M07/M09 A2918 RMK AO2 SLP887 T10721089 PNO
PATA 162052Z 06009KT 10SM OVC042 M07/M08 A2917 RMK AO2 SLP884 T10671083 51005 PNO
PATA 161952Z 02003KT 10SM OVC041 M08/M09 A2917 RMK AO2 SLP884 T10781089 PNO
PATA 161852Z 00000KT 10SM OVC065 M09/M10 A2917 RMK AO2 SLP882 T10891100 PNO
PATA 161752Z 32003KT 10SM OVC060 M11/M11 A2916 RMK AO2 SLP879 4/012 933021 T11061111 11067 21128 53001 PNO
PATA 161652Z 35006KT 10SM BKN060 M12/M13 A2915 RMK AO2 SLP877 T11221133 PNO
PATA 161621Z 00000KT 10SM FEW022 M12/M12 A2915 RMK AO2 T11171122 PNO
PATA 161552Z 33005KT 10SM OVC021 M11/M11 A2915 RMK AO2 SLP878 T11061111 PNO
PATA 161532Z VRB04KT 10SM BKN020 M10/M12 A2915 RMK AO2 T11001117 PNO
PATA 161452Z COR 00000KT 10SM CLR M08/M09 A2915 RMK AO2 SLP878 T10781089 56012
PATA 161352Z AUTO 06008KT 10SM CLR M07/M09 A2916 RMK AO2 SLP880 T10721094 TSNO PNO
PATA 161252Z AUTO 07005KT 10SM BKN095 M07/M09 A2917 RMK AO2 SLP884 T10721094 TSNO PNO
PATA 161152Z AUTO 09010KT 10SM FEW110 M07/M09 A2919 RMK AO2 SLP889 T10721094 11056 21072 58017 TSNO PNO
PATA 161052Z AUTO 13008KT 10SM BKN090 M07/M08 A2920 RMK AO2 SNE14 SLP893 T10671083 TSNO PNO
PATA 160952Z AUTO 05009KT 6SM -SN BR BKN039 OVC070 M07/M09 A2923 RMK AO2 UPB38E51SNB51 SLP903 T10721089 TSNO PNO
PATA 160852Z AUTO 09005KT 10SM BKN075 OVC090 M07/M09 A2924 RMK AO2 SLP906 T10671089 410441117 58022 TSNO PNO
PATA 160752Z AUTO 00000KT 10SM OVC100 M06/M08 A2926 RMK AO2 SLP915 T10611083 TSNO PNO
PATA 160652Z AUTO 06009G14KT 10SM OVC080 M06/M08 A2928 RMK AO2 SLP921 T10611078 TSNO PNO
PATA 160552Z 08006KT 10SM OVC100 M06/M07 A2930 RMK AO2 SLP929 T10561072 11050 21067 58016 PNO
PATA 160452Z 07007KT 10SM OVC100 M06/M07 A2932 RMK AO2 SLP935 T10561067 PNO
PATA 160352Z 07006KT 10SM SCT010 OVC110 M05/M06 A2934 RMK AO2 SLP940 T10501061 PNO
PATA 160334Z 08003KT 10SM FEW009 OVC110 M06/M06 A2934 RMK AO2 T10561061 PNO
PATA 160252Z 00000KT 10SM OVC110 M05/M06 A2935 RMK AO2 SLP944 T10501056 56028 PNO
PATA 160200Z 06008KT 10SM FEW008 M06/M07 A2936 RMK AO2 T10561067 PNO
PATA 160152Z 05008KT 10SM FEW018 BKN070 OVC140 M06/M06 A2937 RMK AO2 SLP950 T10611061 PNO
PATA 160052Z 00000KT 10SM FEW018 BKN070 OVC140 M07/M07 A2940 RMK AO2 SLP961 T10671072 PNO
PATA 160020Z 07003KT 10SM FEW018 BKN070 OVC140 M07/M08 A2941 RMK AO2 T10671078 PNO
PATA 152352Z 09005KT 10SM BKN018 BKN070 OVC140 M06/M07 A2943 RMK AO2 SLP973 T10611072 11044 21083 58018 PNO
PATA 152252Z 10009KT 10SM OVC018 M04/M06 A2946 RMK AO2 SLP982 T10441056 PNO
PATA 152152Z 04006KT 10SM OVC024 M06/M06 A2948 RMK AO2 SLP988 T10561061 PNO
PATA 152052Z 10004KT 10SM BKN015 OVC028 M06/M07 A2949 RMK AO2 SLP992 T10611067 58017 PNO
PATA 152043Z 09005KT 10SM OVC015 M07/M07 A2950 RMK AO2 PRESFR T10671072 PNO
PATA 151952Z 00000KT 10SM OVC014 M07/M08 A2954 RMK AO2 SLP008 T10671078 PNO
PATA 151909Z 13003KT 10SM FEW012 BKN017 OVC095 M08/M09 A2954 RMK AO2 T10781089 PNO
PATA 151852Z 09004KT 10SM SCT014 BKN100 OVC120 M08/M08 A2954 RMK AO2 SNE02 SLP009 T10781083 PNO
PATA 151849Z 09004KT 10SM BKN014 OVC100 M08/M08 A2954 RMK AO2 SNE02 PNO
PATA 151825Z 19003KT 10SM BKN017 OVC065 M07/M08 A2955 RMK AO2 SNE02 T10721078 PNO
PATA 151755Z 05005KT 6SM -SN BR BKN031 OVC065 M07/M08 A2955 RMK AO2 T10721078 PNO
PATA 151748Z 04006KT 2 1/2SM -SN BR BKN031 OVC065 M07/M08 A2955 RMK AO2 SLP013 T10721083 11072 21100 58014 PNO
PATA 151747Z 04006KT 2 1/2SM -SN BR BKN031 OVC065 M07/M08 A2955 RMK AO2 PNO
PATA 151732Z 04003KT 1 1/2SM -SN BR OVC023 M07/M08 A2956 RMK AO2 T10721083 PNO
PATA 151715Z 04003KT 2SM -SN BR BKN029 OVC036 M07/M08 A2957 RMK AO2 T10721083 PNO
PATA 151704Z 00000KT 1 3/4SM -SN BR BKN029 OVC036 M08/M08 A2958 RMK AO2 T10781083 PNO
PATA 151652Z 00000KT 2 1/2SM -SN BR SCT026 OVC032 M08/M08 A2958 RMK AO2 T10781083 PNO
PATA 151648Z 08004KT 3SM -SN BR BKN026 OVC035 M08/M08 A2958 RMK AO2 SLP023 T10781083 PNO
PATA 151647Z 08004KT 3SM -SN BR OVC026 M08/M08 A2958 RMK AO2 PNO
PATA 151624Z 00000KT 1 3/4SM -SN BR FEW020 OVC026 M08/M09 A2959 RMK AO2 T10781089 PNO
PATA 151552Z 13003KT 2 1/2SM -SN BR OVC040 M08/M09 A2958 RMK AO2 SLP023 T10781089 PNO
PATA 151545Z 00000KT 3SM -SN BR OVC038 M08/M09 A2959 RMK AO2 T10781089 PNO
PATA 151533Z 00000KT 2SM -SN BR OVC032 M08/M09 A2959 RMK AO2 T10781089 PNO
PATA 151504Z COR 00000KT 1 3/4SM -SN BR OVC022 M08/M09 A2959 RMK AO2 T10831089
PATA 151452Z AUTO 00000KT 2SM -SN BR OVC024 M08/M09 A2959 RMK AO2 SLP026 T10831094 58007 TSNO PNO
PATA 151421Z AUTO 00000KT 1 1/2SM -SN BR OVC021 M08/M09 A2960 RMK AO2 T10831094 TSNO PNO
PATA 151410Z AUTO 00000KT 2SM -SN BR OVC023 M08/M09 A2960 RMK AO2 T10831094 TSNO PNO
PATA 151359Z AUTO 00000KT 1 1/2SM -SN BR OVC027 M08/M09 A2960 RMK AO2 T10831094 TSNO PNO
PATA 151352Z AUTO 00000KT 1 3/4SM -SN BR OVC031 M08/M09 A2960 RMK AO2 SLP031 T10831094 TSNO PNO
PATA 151252Z AUTO 00000KT 5SM -SN BR BKN060 OVC080 M09/M10 A2961 RMK AO2 SNB28 SLP034 T10891100 TSNO PNO